Flight Track Log - Related Links

Times and Time Zones

All times are in EST time to prevent confusion due to time zone crossing. See the N993SH flight status page for this flight to view local times or setup timezone preferences in your user account.


Time Position Orientation Groundspeed Altitude Reporting Facility
EST Latitude Longitude Course Direction KTS MPH feet Rate Location/Type
Wed 03:00:45 PM 46.3000 -119.2170 250° West 142 163 21,000  Level
Wed 03:01:45 PM 46.2833 -119.2830 270° West 142 163 4,900 -7,300 Descending
Wed 03:02:45 PM 46.2833 -119.3330 226° Southwest 147 169 6,400 1,400 Climbing
Wed 03:03:45 PM 46.2500 -119.3830 215° Southwest 142 163 7,700 1,300 Climbing
Wed 03:04:45 PM 46.2167 -119.4170 205° Southwest 153 176 9,000 1,059 Climbing
Wed 03:05:44 PM 46.1667 -119.4500 205° Southwest 165 190 9,800 1,050 Climbing
Wed 03:06:45 PM 46.1167 -119.4830 205° Southwest 182 209 11,100 1,289 Climbing
Wed 03:07:45 PM 46.0667 -119.5170 214° Southwest 188 216 12,400 1,109 Climbing
Wed 03:08:44 PM 46.0333 -119.5500 215° Southwest 193 222 13,300 950 Climbing
Wed 03:09:45 PM 45.9833 -119.6000 205° Southwest 203 234 14,300 942 Climbing
Wed 03:10:45 PM 45.9333 -119.6330 215° Southwest 208 239 15,200 1,050 Climbing
Wed 03:11:45 PM 45.8833 -119.6830 215° Southwest 215 247 16,400 1,250 Climbing
Wed 03:12:45 PM 45.8333 -119.7330 208° Southwest 220 253 17,700 950 Climbing
Wed 03:13:45 PM 45.7667 -119.7830 215° Southwest 220 253 18,300 900 Climbing
Wed 03:14:45 PM 45.7167 -119.8330 215° Southwest 220 253 19,500 1,100 Climbing
Wed 03:15:45 PM 45.6667 -119.8830 205° Southwest 215 247 20,500 750 Climbing
Wed 03:16:45 PM 45.6167 -119.9170 215° Southwest 222 255 21,000 250 Climbing
Wed 03:17:45 PM 45.5667 -119.9670 215° Southwest 232 267 21,000  Level
Wed 03:18:44 PM 45.5000 -120.0330 208° Southwest 249 287 21,000  Level
Wed 03:19:44 PM 45.4333 -120.0830 215° Southwest 264 304 21,000  Level
Wed 03:20:45 PM 45.3833 -120.1330 215° Southwest 269 310 21,000  Level
Wed 03:21:44 PM 45.3167 -120.2000 208° Southwest 269 310 21,000  Level
Wed 03:22:45 PM 45.2500 -120.2500 208° Southwest 269 310 21,000  Level
Wed 03:23:45 PM 45.1833 -120.3000 223° Southwest 269 310 21,000  Level
Wed 03:24:45 PM 45.1333 -120.3670 208° Southwest 269 310 21,000  Level
Wed 03:25:45 PM 45.0667 -120.4170 215° Southwest 264 304 21,000 -350 Level
Wed 03:26:45 PM 45.0000 -120.4830 215° Southwest 264 304 20,300 -650 Descending
Wed 03:27:45 PM 44.9500 -120.5330 208° Southwest 264 304 19,700 -900 Descending
Wed 03:28:45 PM 44.8833 -120.5830 216° Southwest 275 316 18,500 -1,000 Descending
Wed 03:29:45 PM 44.8167 -120.6500 216° Southwest 280 322 17,700 -1,100 Descending
Wed 03:30:45 PM 44.7500 -120.7170 203° Southwest 280 322 16,300 -1,412 Descending
Wed 03:31:44 PM 44.6667 -120.7670 208° Southwest 285 328 14,900 -1,400 Descending
Wed 03:32:45 PM 44.6000 -120.8170 208° Southwest 285 328 13,500 -1,377 Descending

Login

Don't have an account? Register now (free) for customized features, flight alerts, and more!